Bauer, Utah
Current Conditions -  °F | °C
As of 6:35 AM on Wednesday 22 Oct 2014 (Local Time) from KPVU Reporting Station
Clear Clear  
Wind Chill: 34°   Ceiling: Unl
Heat Index: 37°   Visibility: 10mi
Dew Point: 28°   Wind: 5mph
Humidity: 70%   Direction: 100°E
Pressure: 30.17"   Gusts: NA
Location:  40.2688°N, 112.37°W
Report Text: KPVU 221235Z AUTO 10004KT 10SM CLR 03/M02 A3017 RMK AO1
Loading
Personal Weather Stations






























Interactive Weather Map
Tropical Storm Tracking
New forecast layout! Learn more

10-Day Weather Forecast

Advertisements
Track Severe Weather on mobile